createdAt,value
2022-12-28T00:01:52.848Z,8.45
2022-12-28T00:04:20.943Z,10.38
2022-12-28T00:06:50.508Z,5.72
2022-12-28T00:09:18.562Z,6.15
2022-12-28T00:11:46.639Z,4.80
2022-12-28T00:14:14.303Z,5.30
2022-12-28T00:16:44.970Z,4.82
2022-12-28T00:19:14.856Z,4.80
2022-12-28T00:21:42.795Z,8.00
2022-12-28T00:24:18.438Z,5.70
2022-12-28T00:26:46.129Z,7.78
2022-12-28T00:29:13.778Z,5.47
2022-12-28T00:31:45.662Z,3.95
2022-12-28T00:34:13.817Z,7.05
2022-12-28T00:37:10.692Z,9.43
2022-12-28T00:39:29.363Z,6.93
2022-12-28T00:41:57.279Z,5.32
2022-12-28T00:44:25.086Z,12.30
2022-12-28T00:46:56.222Z,3.65
2022-12-28T00:49:24.151Z,3.30
2022-12-28T00:51:52.138Z,12.43
2022-12-28T00:54:20.083Z,6.45
2022-12-28T00:56:48.793Z,6.35
2022-12-28T00:59:16.600Z,6.87
2022-12-28T01:01:44.512Z,5.35
2022-12-28T01:04:13.806Z,7.07
2022-12-28T01:06:41.725Z,4.63
2022-12-28T01:09:09.515Z,2.85
2022-12-28T01:11:37.465Z,9.50
2022-12-28T01:14:05.320Z,9.88
2022-12-28T01:16:35.795Z,3.25
2022-12-28T01:19:06.649Z,6.22
2022-12-28T01:21:37.029Z,7.35
2022-12-28T01:24:07.821Z,5.63
2022-12-28T01:26:36.047Z,7.57
2022-12-28T01:29:19.271Z,7.30
2022-12-28T01:31:47.157Z,4.50
2022-12-28T01:34:15.126Z,8.27
2022-12-28T01:36:44.407Z,8.18
2022-12-28T01:39:12.646Z,6.22
2022-12-28T01:41:42.223Z,6.55
2022-12-28T01:44:55.770Z,5.80
2022-12-28T01:47:25.567Z,4.93
2022-12-28T01:49:58.471Z,6.33
2022-12-28T01:52:31.424Z,6.75
2022-12-28T01:55:02.611Z,5.38
2022-12-28T01:57:34.189Z,7.20
2022-12-28T02:00:05.052Z,2.97
2022-12-28T02:02:33.102Z,11.23
2022-12-28T02:05:01.742Z,8.02
2022-12-28T02:07:38.294Z,5.32
2022-12-28T02:10:43.821Z,3.80
2022-12-28T02:12:56.400Z,6.10
2022-12-28T02:15:24.390Z,5.73
2022-12-28T02:17:52.360Z,3.80
2022-12-28T02:20:20.591Z,5.68
2022-12-28T02:23:18.903Z,6.70
2022-12-28T02:26:37.222Z,5.28
2022-12-28T02:29:42.684Z,5.50
2022-12-28T02:32:25.360Z,4.10
2022-12-28T02:34:57.805Z,3.42
2022-12-28T02:37:29.488Z,4.03
2022-12-28T02:40:03.681Z,7.50
2022-12-28T02:42:32.061Z,5.57
2022-12-28T02:45:17.349Z,4.60
2022-12-28T02:48:04.849Z,5.97
2022-12-28T02:50:39.011Z,8.65
2022-12-28T02:53:18.318Z,7.53
2022-12-28T02:56:17.196Z,8.93
2022-12-28T02:59:01.417Z,5.35
2022-12-28T03:01:42.921Z,5.43
2022-12-28T03:04:18.228Z,5.60
2022-12-28T03:07:06.950Z,5.07
2022-12-28T03:09:38.537Z,10.23
2022-12-28T03:12:09.133Z,4.18
2022-12-28T03:14:41.962Z,3.63
2022-12-28T03:17:28.269Z,5.77
2022-12-28T03:20:17.034Z,6.03
2022-12-28T03:23:03.421Z,6.72
2022-12-28T03:25:52.170Z,6.22
2022-12-28T03:28:38.340Z,10.93
2022-12-28T03:31:10.682Z,8.20
2022-12-28T03:33:41.205Z,8.43
2022-12-28T03:36:12.522Z,5.45
2022-12-28T03:38:49.694Z,4.23
2022-12-28T03:41:21.131Z,4.72
2022-12-28T03:43:51.093Z,4.35
2022-12-28T03:46:21.469Z,7.60
2022-12-28T03:48:50.173Z,4.97
2022-12-28T03:51:22.579Z,7.10
2022-12-28T03:53:50.877Z,7.15
2022-12-28T03:56:20.820Z,5.10
2022-12-28T03:58:49.473Z,4.35
2022-12-28T04:01:17.619Z,6.55
2022-12-28T04:03:45.648Z,6.75
2022-12-28T04:06:16.059Z,9.77
2022-12-28T04:08:45.816Z,7.63
2022-12-28T04:11:14.728Z,5.78
2022-12-28T04:13:42.566Z,6.45
2022-12-28T04:16:11.998Z,6.67
2022-12-28T04:18:40.729Z,6.65
2022-12-28T04:21:09.067Z,3.95
2022-12-28T04:23:37.148Z,4.90
2022-12-28T04:26:08.257Z,3.05
2022-12-28T04:28:36.754Z,6.00
2022-12-28T04:31:05.949Z,4.43
2022-12-28T04:33:34.856Z,4.73
2022-12-28T04:36:07.066Z,4.47
2022-12-28T04:38:35.075Z,0.50
2022-12-28T04:41:03.461Z,0.88
2022-12-28T04:43:34.220Z,1.52
2022-12-28T04:46:03.393Z,0.70
2022-12-28T04:48:31.606Z,0.00
2022-12-28T04:50:59.668Z,0.30
2022-12-28T04:53:27.598Z,0.00
2022-12-28T04:55:58.371Z,0.00
2022-12-28T04:58:26.604Z,0.10
2022-12-28T05:00:55.840Z,0.00
2022-12-28T05:03:23.645Z,0.30
2022-12-28T05:05:51.211Z,0.00
2022-12-28T05:08:19.015Z,0.00
2022-12-28T05:10:46.793Z,0.00
2022-12-28T05:13:14.726Z,0.00
2022-12-28T05:15:42.524Z,0.00
2022-12-28T05:18:11.842Z,0.10
2022-12-28T05:20:39.591Z,0.00
2022-12-28T05:23:07.488Z,0.00
2022-12-28T05:25:35.360Z,0.30
2022-12-28T05:28:03.163Z,0.00
2022-12-28T05:30:30.969Z,0.00
2022-12-28T05:32:59.211Z,0.00
2022-12-28T05:35:28.244Z,0.00
2022-12-28T05:37:56.034Z,0.03
2022-12-28T05:40:23.854Z,0.60
2022-12-28T05:42:51.848Z,0.00
2022-12-28T05:45:19.934Z,0.30
2022-12-28T05:47:47.756Z,0.00
2022-12-28T05:50:15.675Z,0.00
2022-12-28T05:52:44.879Z,0.00
2022-12-28T05:55:12.724Z,0.00
2022-12-28T05:57:40.612Z,0.00
2022-12-28T06:00:09.642Z,0.90
2022-12-28T06:02:37.777Z,0.00
2022-12-28T06:05:06.418Z,0.00
2022-12-28T06:07:34.201Z,0.00
2022-12-28T06:10:03.591Z,0.40
2022-12-28T06:12:31.534Z,0.00
2022-12-28T06:14:59.500Z,0.00
2022-12-28T06:17:27.330Z,0.10
2022-12-28T06:19:55.477Z,0.00
2022-12-28T06:22:23.333Z,0.40
2022-12-28T06:24:51.153Z,4.60
2022-12-28T06:27:20.390Z,0.00
2022-12-28T06:29:47.939Z,0.20
2022-12-28T06:32:15.785Z,0.00
2022-12-28T06:34:43.631Z,0.20
2022-12-28T06:37:13.468Z,0.00
2022-12-28T06:39:41.433Z,0.00
2022-12-28T06:42:09.398Z,0.00
2022-12-28T06:44:44.300Z,0.00
2022-12-28T06:47:12.978Z,0.00
2022-12-28T06:49:40.612Z,0.00
2022-12-28T06:52:08.556Z,2.70
2022-12-28T06:54:36.447Z,0.00
2022-12-28T06:57:04.364Z,0.00
2022-12-28T06:59:32.173Z,0.40
2022-12-28T07:02:01.660Z,0.00
2022-12-28T07:04:29.612Z,0.00
2022-12-28T07:06:57.592Z,0.10
2022-12-28T07:09:25.541Z,0.00
2022-12-28T07:11:53.499Z,0.00
2022-12-28T07:14:21.477Z,0.00
2022-12-28T07:16:50.016Z,0.00
2022-12-28T07:19:19.413Z,0.00
2022-12-28T07:21:47.222Z,0.10
2022-12-28T07:24:15.038Z,0.70
2022-12-28T07:26:43.196Z,0.00
2022-12-28T07:29:11.082Z,0.20
2022-12-28T07:31:45.190Z,0.20
2022-12-28T07:34:13.845Z,0.13
2022-12-28T07:36:43.801Z,0.00
2022-12-28T07:39:11.636Z,0.00
2022-12-28T07:41:39.351Z,0.10
2022-12-28T07:44:07.460Z,0.10
2022-12-28T07:46:37.338Z,0.50
2022-12-28T07:49:05.614Z,0.10
2022-12-28T07:51:34.877Z,0.00
2022-12-28T07:54:04.346Z,0.00
2022-12-28T07:59:00.756Z,0.00
2022-12-28T08:01:30.301Z,0.30
2022-12-28T08:04:00.037Z,0.00
2022-12-28T08:06:29.410Z,0.00
2022-12-28T08:08:59.954Z,0.00
2022-12-28T08:11:30.414Z,0.10
2022-12-28T08:13:58.869Z,0.03
2022-12-28T08:16:29.239Z,0.00
2022-12-28T08:18:57.292Z,0.00
2022-12-28T08:21:26.672Z,0.00
2022-12-28T08:23:54.475Z,0.00
2022-12-28T08:26:23.841Z,0.00
2022-12-28T08:28:54.261Z,0.00
2022-12-28T08:31:24.035Z,1.00
2022-12-28T08:33:52.583Z,0.22
2022-12-28T08:36:20.546Z,0.00
2022-12-28T08:38:48.530Z,0.00
2022-12-28T08:41:18.092Z,0.10
2022-12-28T08:43:46.644Z,0.20
2022-12-28T08:46:18.148Z,0.10
2022-12-28T08:48:46.873Z,0.10
2022-12-28T08:51:17.234Z,0.10
2022-12-28T08:53:45.875Z,0.00
2022-12-28T08:56:15.364Z,0.40
2022-12-28T08:58:44.360Z,0.00
2022-12-28T09:01:14.259Z,0.20
2022-12-28T09:03:45.618Z,0.08
2022-12-28T09:06:15.281Z,0.40
2022-12-28T09:08:56.838Z,0.00
2022-12-28T09:11:31.278Z,0.05
2022-12-28T09:13:59.007Z,0.00
2022-12-28T09:16:29.368Z,0.10
2022-12-28T09:19:00.143Z,0.03
2022-12-28T09:21:30.222Z,0.60
2022-12-28T09:23:58.018Z,0.20
2022-12-28T09:26:27.134Z,0.00
2022-12-28T09:28:57.235Z,0.10
2022-12-28T09:31:26.964Z,1.20
2022-12-28T09:36:51.227Z,0.10
2022-12-28T09:39:20.854Z,0.00
2022-12-28T09:41:51.391Z,0.20
2022-12-28T09:44:30.709Z,0.10
2022-12-28T09:47:01.572Z,0.00
2022-12-28T09:49:37.145Z,0.00
2022-12-28T09:52:13.276Z,0.00
2022-12-28T09:54:41.835Z,0.10
2022-12-28T09:57:11.811Z,0.30
2022-12-28T09:59:39.582Z,0.00
2022-12-28T10:02:18.630Z,0.00
2022-12-28T10:04:49.485Z,0.00
2022-12-28T10:07:19.064Z,0.00
2022-12-28T10:09:47.488Z,0.30
2022-12-28T10:12:16.762Z,0.00
2022-12-28T10:14:46.916Z,0.10
2022-12-28T10:17:15.967Z,0.00
2022-12-28T10:19:45.853Z,0.00
2022-12-28T10:22:16.997Z,0.20
2022-12-28T10:24:46.724Z,0.00
2022-12-28T10:27:20.604Z,0.00
2022-12-28T10:29:48.429Z,0.00
2022-12-28T10:32:16.399Z,0.00
2022-12-28T10:34:55.526Z,0.00
2022-12-28T10:37:23.646Z,0.30
2022-12-28T10:39:55.405Z,0.70
2022-12-28T10:42:26.290Z,0.00
2022-12-28T10:44:54.208Z,0.00
2022-12-28T10:47:30.585Z,1.07
2022-12-28T10:52:57.920Z,0.00
2022-12-28T10:55:32.043Z,0.20
2022-12-28T10:58:33.140Z,0.00
2022-12-28T11:01:04.554Z,0.30
2022-12-28T11:03:38.401Z,2.10
2022-12-28T11:06:21.308Z,0.00
2022-12-28T11:09:06.762Z,0.80
2022-12-28T11:11:36.018Z,0.28
2022-12-28T11:14:07.559Z,0.00
2022-12-28T11:16:37.641Z,0.00
2022-12-28T11:19:05.473Z,0.00
2022-12-28T11:21:34.929Z,0.00
2022-12-28T11:24:02.620Z,0.00
2022-12-28T11:26:31.566Z,0.00
2022-12-28T11:29:02.375Z,0.00
2022-12-28T11:31:32.930Z,0.00
2022-12-28T11:34:03.627Z,0.00
2022-12-28T11:36:32.876Z,0.00
2022-12-28T11:39:33.923Z,0.00
2022-12-28T11:42:37.273Z,0.03
2022-12-28T11:44:53.196Z,0.00
2022-12-28T11:47:35.663Z,0.00
2022-12-28T11:50:50.495Z,0.00
2022-12-28T11:53:24.352Z,0.10
2022-12-28T11:56:01.419Z,0.10
2022-12-28T11:58:45.364Z,0.05
2022-12-28T12:01:52.119Z,0.00
2022-12-28T12:04:31.880Z,0.40
2022-12-28T12:07:31.538Z,0.10
2022-12-28T12:10:30.170Z,0.00
2022-12-28T12:13:00.557Z,0.00
2022-12-28T12:15:40.476Z,0.20
2022-12-28T12:18:18.209Z,0.00
2022-12-28T12:20:51.339Z,0.00
2022-12-28T12:23:38.962Z,6.63
2022-12-28T12:26:22.328Z,0.05
2022-12-28T12:28:52.158Z,0.00
2022-12-28T12:31:27.000Z,0.00
2022-12-28T12:33:58.747Z,0.08
2022-12-28T12:37:01.678Z,0.40
2022-12-28T12:39:41.981Z,0.10
2022-12-28T12:42:15.956Z,0.00
2022-12-28T12:44:50.961Z,0.00
2022-12-28T12:47:35.403Z,0.00
2022-12-28T12:50:20.142Z,0.00
2022-12-28T12:52:56.403Z,0.10
2022-12-28T12:55:35.016Z,0.00
2022-12-28T12:58:05.196Z,0.00
2022-12-28T13:00:47.021Z,0.00
2022-12-28T13:03:20.473Z,0.00
2022-12-28T13:05:53.529Z,0.40
2022-12-28T13:08:26.995Z,0.00
2022-12-28T13:10:55.836Z,0.00
2022-12-28T13:13:30.096Z,0.00
2022-12-28T13:16:02.465Z,0.00
2022-12-28T13:18:46.618Z,0.50
2022-12-28T13:21:21.371Z,0.00
2022-12-28T13:23:49.676Z,0.00
2022-12-28T13:26:17.749Z,0.00
2022-12-28T13:28:50.931Z,0.00
2022-12-28T13:31:20.232Z,0.00
2022-12-28T13:33:58.491Z,0.30
2022-12-28T13:36:28.326Z,0.10
2022-12-28T13:39:05.371Z,0.00
2022-12-28T13:41:34.017Z,0.60
2022-12-28T13:44:35.538Z,0.00
2022-12-28T13:47:07.520Z,0.00
2022-12-28T13:49:38.952Z,0.00
2022-12-28T13:52:14.880Z,0.00
2022-12-28T13:54:46.009Z,0.00
2022-12-28T13:57:45.365Z,0.10
2022-12-28T14:00:04.933Z,0.30
2022-12-28T14:02:34.382Z,0.00
2022-12-28T14:05:02.666Z,0.03
2022-12-28T14:07:32.232Z,0.20
2022-12-28T14:10:00.200Z,0.00
2022-12-28T14:12:28.336Z,0.00
2022-12-28T14:14:56.700Z,2.00
2022-12-28T14:17:24.486Z,0.10
2022-12-28T14:19:53.338Z,0.00
2022-12-28T14:22:33.199Z,1.40
2022-12-28T14:25:07.285Z,0.00
2022-12-28T14:27:37.629Z,0.10
2022-12-28T14:30:07.777Z,0.00
2022-12-28T14:32:42.279Z,0.00
2022-12-28T14:35:18.300Z,0.00
2022-12-28T14:37:48.789Z,0.00
2022-12-28T14:40:23.763Z,0.00
2022-12-28T14:42:52.217Z,0.20
2022-12-28T14:45:25.185Z,0.00
2022-12-28T14:47:56.643Z,0.00
2022-12-28T14:50:26.633Z,0.08
2022-12-28T14:53:08.725Z,0.10
2022-12-28T14:55:42.901Z,0.00
2022-12-28T14:58:17.075Z,0.00
2022-12-28T15:00:55.985Z,0.00
2022-12-28T15:03:25.679Z,0.00
2022-12-28T15:05:54.461Z,0.00
2022-12-28T15:08:24.019Z,1.13
2022-12-28T15:10:53.506Z,0.00
2022-12-28T15:13:22.324Z,0.00
2022-12-28T15:15:57.652Z,0.00
2022-12-28T15:18:25.856Z,0.00
2022-12-28T15:20:54.262Z,0.00
2022-12-28T15:23:23.409Z,0.10
2022-12-28T15:25:51.311Z,0.00
2022-12-28T15:28:19.958Z,0.00
2022-12-28T15:30:48.061Z,0.00
2022-12-28T15:33:16.492Z,0.00
2022-12-28T15:35:44.238Z,3.40
2022-12-28T15:38:12.041Z,0.00
2022-12-28T15:40:41.753Z,0.00
2022-12-28T15:43:09.621Z,0.00
2022-12-28T15:45:37.288Z,0.00
2022-12-28T15:48:06.393Z,0.40
2022-12-28T15:50:34.316Z,0.00
2022-12-28T15:53:01.881Z,0.00
2022-12-28T15:55:31.338Z,0.60
2022-12-28T15:58:00.262Z,0.00
2022-12-28T16:00:27.896Z,0.00
2022-12-28T16:02:56.884Z,0.00
2022-12-28T16:05:24.908Z,0.00
2022-12-28T16:07:52.793Z,0.00
2022-12-28T16:10:20.711Z,0.10
2022-12-28T16:12:48.578Z,0.10
2022-12-28T16:15:17.855Z,0.00
2022-12-28T16:17:55.060Z,1.00
2022-12-28T16:20:24.983Z,0.00
2022-12-28T16:22:53.864Z,0.00
2022-12-28T16:25:21.464Z,0.00
2022-12-28T16:27:49.461Z,0.00
2022-12-28T16:30:18.681Z,0.00
2022-12-28T16:32:48.029Z,0.10
2022-12-28T16:35:16.191Z,0.00
2022-12-28T16:37:44.139Z,0.00
2022-12-28T16:40:13.449Z,0.60
2022-12-28T16:42:45.991Z,0.00
2022-12-28T16:45:14.211Z,0.00
2022-12-28T16:47:45.169Z,0.00
2022-12-28T16:50:13.288Z,0.20
2022-12-28T16:52:41.212Z,0.00
2022-12-28T16:55:09.806Z,0.00
2022-12-28T16:57:37.415Z,0.10
2022-12-28T17:00:06.152Z,0.00
2022-12-28T17:02:34.045Z,0.40
2022-12-28T17:05:03.454Z,0.20
2022-12-28T17:07:31.296Z,0.00
2022-12-28T17:09:58.982Z,0.10
2022-12-28T17:12:26.947Z,0.00
2022-12-28T17:14:54.764Z,0.00
2022-12-28T17:17:22.611Z,0.00
2022-12-28T17:19:50.484Z,0.00
2022-12-28T17:22:19.683Z,0.00
2022-12-28T17:24:47.528Z,0.00
2022-12-28T17:27:19.049Z,2.60
2022-12-28T17:29:47.329Z,0.15
2022-12-28T17:32:15.216Z,0.00
2022-12-28T17:34:43.829Z,0.00
2022-12-28T17:37:13.624Z,0.00
2022-12-28T17:39:42.893Z,0.00
2022-12-28T17:42:11.847Z,0.05
2022-12-28T17:44:39.650Z,0.00
2022-12-28T17:47:08.370Z,0.20
2022-12-28T17:49:36.338Z,0.00
2022-12-28T17:52:04.653Z,0.00
2022-12-28T17:54:32.677Z,0.00
2022-12-28T17:57:01.910Z,0.00
2022-12-28T17:59:29.814Z,0.20
2022-12-28T18:01:58.160Z,0.00
2022-12-28T18:04:26.192Z,0.00
2022-12-28T18:06:54.173Z,0.30
2022-12-28T18:09:27.331Z,0.00
2022-12-28T18:11:55.891Z,0.38
2022-12-28T18:14:25.240Z,0.08
2022-12-28T18:16:53.252Z,4.80
2022-12-28T18:19:21.146Z,0.00
2022-12-28T18:21:49.103Z,0.00
2022-12-28T18:24:20.752Z,0.00
2022-12-28T18:26:48.676Z,0.00
2022-12-28T18:29:16.473Z,0.10
2022-12-28T18:31:45.555Z,0.00
2022-12-28T18:34:13.500Z,0.20
2022-12-28T18:36:41.479Z,0.00
2022-12-28T18:39:09.763Z,0.00
2022-12-28T18:41:37.733Z,0.30
2022-12-28T18:44:05.706Z,0.00
2022-12-28T18:46:33.674Z,0.10
2022-12-28T18:49:03.207Z,0.00
2022-12-28T18:51:31.148Z,0.00
2022-12-28T18:53:59.345Z,0.00
2022-12-28T18:56:27.164Z,0.17
2022-12-28T18:58:56.911Z,0.08
2022-12-28T19:02:04.528Z,0.00
2022-12-28T19:04:16.152Z,0.00
2022-12-28T19:06:44.695Z,0.00
2022-12-28T19:09:13.419Z,0.00
2022-12-28T19:11:41.734Z,0.00
2022-12-28T19:14:12.372Z,0.00
2022-12-28T19:16:40.387Z,0.25
2022-12-28T19:19:08.352Z,0.00
2022-12-28T19:21:38.883Z,0.05
2022-12-28T19:24:08.287Z,0.00
2022-12-28T19:26:36.879Z,0.00
2022-12-28T19:29:04.911Z,0.00
2022-12-28T19:31:33.391Z,0.20
2022-12-28T19:34:01.438Z,0.00
2022-12-28T19:36:29.485Z,0.00
2022-12-28T19:38:59.429Z,0.00
2022-12-28T19:41:27.425Z,0.00
2022-12-28T19:43:55.397Z,0.00
2022-12-28T19:46:30.592Z,0.00
2022-12-28T19:48:59.050Z,0.00
2022-12-28T19:51:30.507Z,0.00
2022-12-28T19:54:01.086Z,0.00
2022-12-28T19:56:29.050Z,0.00
2022-12-28T19:59:04.922Z,4.50
2022-12-28T20:01:33.366Z,0.05
2022-12-28T20:04:04.467Z,0.00
2022-12-28T20:06:35.124Z,0.00
2022-12-28T20:09:04.473Z,0.00
2022-12-28T20:11:32.325Z,0.90
2022-12-28T20:14:02.760Z,0.00
2022-12-28T20:16:32.288Z,0.00
2022-12-28T20:19:01.578Z,0.00
2022-12-28T20:21:29.591Z,0.00
2022-12-28T20:23:57.562Z,0.00
2022-12-28T20:26:28.220Z,0.00
2022-12-28T20:28:57.090Z,0.00
2022-12-28T20:31:25.135Z,0.00
2022-12-28T20:33:53.124Z,1.30
2022-12-28T20:36:23.015Z,0.00
2022-12-28T20:38:51.031Z,0.00
2022-12-28T20:41:37.706Z,0.00
2022-12-28T20:44:08.986Z,0.10
2022-12-28T20:46:37.419Z,0.00
2022-12-28T20:49:05.781Z,0.00
2022-12-28T20:51:33.735Z,0.40
2022-12-28T20:54:02.009Z,0.00
2022-12-28T20:56:30.140Z,0.10
2022-12-28T20:58:58.196Z,0.00
2022-12-28T21:01:27.925Z,0.10
2022-12-28T21:03:56.085Z,0.00
2022-12-28T21:06:24.030Z,0.10
2022-12-28T21:08:51.857Z,0.08
2022-12-28T21:11:19.906Z,0.00
2022-12-28T21:13:47.759Z,0.00
2022-12-28T21:16:17.364Z,0.00
2022-12-28T21:18:47.194Z,0.00
2022-12-28T21:21:15.901Z,0.00
2022-12-28T21:23:43.619Z,0.00
2022-12-28T21:26:14.315Z,0.00
2022-12-28T21:28:42.105Z,0.00
2022-12-28T21:31:10.509Z,1.55
2022-12-28T21:33:39.133Z,0.00
2022-12-28T21:36:13.805Z,0.00
2022-12-28T21:38:42.965Z,0.30
2022-12-28T21:41:12.259Z,0.00
2022-12-28T21:43:40.534Z,0.00
2022-12-28T21:46:12.126Z,0.00
2022-12-28T21:48:40.761Z,0.45
2022-12-28T21:51:31.185Z,0.00
2022-12-28T21:53:59.407Z,0.00
2022-12-28T21:56:27.204Z,0.30
2022-12-28T21:58:55.228Z,0.00
2022-12-28T22:01:40.776Z,0.00
2022-12-28T22:04:26.088Z,0.15
2022-12-28T22:06:55.433Z,0.00
2022-12-28T22:09:40.407Z,0.00
2022-12-28T22:12:27.078Z,0.00
2022-12-28T22:15:15.015Z,0.00
2022-12-28T22:17:43.205Z,0.00
2022-12-28T22:20:12.899Z,0.10
2022-12-28T22:22:43.722Z,0.00
2022-12-28T22:25:12.883Z,0.70
2022-12-28T22:27:41.035Z,0.00
2022-12-28T22:30:09.875Z,0.10
2022-12-28T22:32:37.856Z,0.00
2022-12-28T22:35:06.604Z,0.00
2022-12-28T22:37:34.938Z,0.08
2022-12-28T22:40:05.770Z,0.00
2022-12-28T22:42:33.640Z,0.15
2022-12-28T22:45:01.566Z,0.00
2022-12-28T22:47:29.675Z,0.00
2022-12-28T22:49:57.615Z,0.00
2022-12-28T22:52:26.367Z,0.00
2022-12-28T22:54:54.292Z,0.00
2022-12-28T22:57:23.604Z,0.00
2022-12-28T22:59:51.516Z,0.00
2022-12-28T23:02:19.665Z,0.30
2022-12-28T23:04:47.819Z,0.00
2022-12-28T23:07:15.761Z,0.00
2022-12-28T23:09:43.395Z,0.00
2022-12-28T23:12:11.041Z,0.00
2022-12-28T23:14:57.448Z,0.10
2022-12-28T23:17:26.737Z,0.00
2022-12-28T23:20:11.928Z,0.10
2022-12-28T23:23:05.681Z,0.00
2022-12-28T23:25:51.052Z,0.00
2022-12-28T23:28:19.020Z,0.80
2022-12-28T23:30:49.503Z,0.10
2022-12-28T23:33:17.920Z,0.00
2022-12-28T23:35:46.071Z,0.00
2022-12-28T23:38:13.898Z,0.03
2022-12-28T23:40:42.321Z,0.00
2022-12-28T23:43:10.240Z,0.00
2022-12-28T23:45:38.038Z,0.00
2022-12-28T23:48:07.508Z,0.00
2022-12-28T23:50:36.176Z,0.00
2022-12-28T23:53:04.141Z,0.00
2022-12-28T23:55:31.910Z,0.00
2022-12-28T23:57:59.731Z,0.00
